createdAt,value
2022-11-06T00:04:13.007Z,1012.2
2022-11-06T00:10:35.988Z,1012.16
2022-11-06T00:16:56.036Z,1012.08
2022-11-06T00:23:18.983Z,1011.98
2022-11-06T00:29:38.969Z,1011.93
2022-11-06T00:36:02.037Z,1011.89
2022-11-06T00:42:21.981Z,1011.95
2022-11-06T00:48:44.977Z,1011.96
2022-11-06T00:55:05.015Z,1012.02
2022-11-06T01:01:28.205Z,1011.98
2022-11-06T01:07:47.994Z,1012.02
2022-11-06T01:14:11.002Z,1012.04
2022-11-06T01:20:30.969Z,1012.08
2022-11-06T01:27:20.261Z,1012.06
2022-11-06T01:33:14.001Z,1012
2022-11-06T01:39:36.994Z,1011.93
2022-11-06T01:45:57.011Z,1011.91
2022-11-06T01:52:20.012Z,1011.81
2022-11-06T01:58:39.997Z,1011.77
2022-11-06T02:05:02.992Z,1011.71
2022-11-06T02:11:23.021Z,1011.67
2022-11-06T02:17:45.987Z,1011.59
2022-11-06T02:24:06.001Z,1011.59
2022-11-06T02:30:29.032Z,1011.61
2022-11-06T02:36:48.989Z,1011.61
2022-11-06T02:43:11.989Z,1011.57
2022-11-06T02:49:32.039Z,1011.55
2022-11-06T02:55:54.987Z,1011.51
2022-11-06T03:02:15.145Z,1011.42
2022-11-06T03:08:37.994Z,1011.34
2022-11-06T03:14:57.998Z,1011.34
2022-11-06T03:21:21.012Z,1011.32
2022-11-06T03:27:40.998Z,1011.3
2022-11-06T03:34:03.984Z,1011.22
2022-11-06T03:40:23.990Z,1011.14
2022-11-06T03:46:47.018Z,1011.2
2022-11-06T03:53:07.006Z,1011.32
2022-11-06T03:59:29.999Z,1011.44
2022-11-06T04:05:50.008Z,1011.49
2022-11-06T04:12:12.976Z,1011.48
2022-11-06T04:18:32.973Z,1011.55
2022-11-06T04:41:03.249Z,1011.46
2022-11-06T04:47:25.990Z,1011.36
2022-11-06T04:53:46.001Z,1011.24
2022-11-06T05:00:08.998Z,1011.09
2022-11-06T05:06:30.270Z,1010.97
2022-11-06T05:12:51.983Z,1010.81
2022-11-06T05:19:11.998Z,1010.69
2022-11-06T05:25:34.983Z,1010.63
2022-11-06T05:31:54.994Z,1010.49
2022-11-06T05:38:18.088Z,1010.35
2022-11-06T05:44:37.976Z,1010.2
2022-11-06T05:51:01.003Z,1010.16
2022-11-06T05:57:21.026Z,1010.08
2022-11-06T06:03:43.981Z,1009.92
2022-11-06T06:10:04.026Z,1009.86
2022-11-06T06:16:27.112Z,1009.82
2022-11-06T06:22:46.963Z,1009.73
2022-11-06T06:29:09.985Z,1009.67
2022-11-06T06:35:30.120Z,1009.61
2022-11-06T06:41:53.006Z,1009.53
2022-11-06T06:48:13.261Z,1009.59
2022-11-06T06:54:36.004Z,1009.61
2022-11-06T07:00:56.075Z,1009.63
2022-11-06T07:07:19.044Z,1009.69
2022-11-06T07:13:39.013Z,1009.73
2022-11-06T07:20:01.981Z,1009.82
2022-11-06T07:26:21.991Z,1009.84
2022-11-06T07:32:45.012Z,1009.82
2022-11-06T07:39:05.007Z,1009.77
2022-11-06T07:45:27.983Z,1009.75
2022-11-06T07:51:48.049Z,1009.77
2022-11-06T07:58:11.268Z,1009.75
2022-11-06T08:04:31.003Z,1009.78
2022-11-06T08:10:54.017Z,1009.75
2022-11-06T08:17:13.995Z,1009.69
2022-11-06T08:23:36.992Z,1009.65
2022-11-06T08:29:57.003Z,1009.45
2022-11-06T08:36:19.991Z,1009.41
2022-11-06T08:42:39.987Z,1009.31
2022-11-06T08:49:03.031Z,1009.28
2022-11-06T08:55:23.291Z,1009.26
2022-11-06T09:01:46.120Z,1009.2
2022-11-06T09:08:06.027Z,1009.1
2022-11-06T09:14:28.976Z,1008.98
2022-11-06T09:20:49.007Z,1009
2022-11-06T09:27:12.007Z,1008.86
2022-11-06T09:33:31.992Z,1008.79
2022-11-06T09:57:14.091Z,1008.61
2022-11-06T10:03:36.977Z,1008.55
2022-11-06T10:09:56.993Z,1008.45
2022-11-06T10:16:20.021Z,1008.41
2022-11-06T10:22:39.995Z,1008.36
2022-11-06T10:29:02.982Z,1008.28
2022-11-06T10:35:23.188Z,1008.14
2022-11-06T10:41:45.995Z,1008.06
2022-11-06T10:48:05.976Z,1007.9
2022-11-06T10:54:29.111Z,1007.8
2022-11-06T11:00:49.035Z,1007.7
2022-11-06T11:07:11.975Z,1007.56
2022-11-06T11:13:32.011Z,1007.41
2022-11-06T11:19:54.990Z,1007.29
2022-11-06T11:26:15.017Z,1007.19
2022-11-06T11:32:38.105Z,1007.1
2022-11-06T11:38:57.983Z,1006.86
2022-11-06T11:45:21.012Z,1006.8
2022-11-06T11:51:41.028Z,1006.72
2022-11-06T11:58:04.007Z,1006.63
2022-11-06T12:04:23.992Z,1006.43
2022-11-06T12:10:47.002Z,1006.23
2022-11-06T12:17:06.991Z,1006.14
2022-11-06T12:23:29.975Z,1005.92
2022-11-06T12:29:50.014Z,1005.74
2022-11-06T12:36:13.006Z,1005.61
2022-11-06T12:42:32.977Z,1005.53
2022-11-06T12:48:56.060Z,1005.4
2022-11-06T12:55:15.997Z,1005.36
2022-11-06T13:01:39.082Z,1005.25
2022-11-06T13:07:59.015Z,1005.05
2022-11-06T13:14:21.986Z,1004.97
2022-11-06T13:20:42.008Z,1005.07
2022-11-06T13:27:05.019Z,1005.03
2022-11-06T13:33:24.987Z,1005.01
2022-11-06T13:39:47.997Z,1004.95
2022-11-06T13:46:08.018Z,1004.84
2022-11-06T13:52:30.981Z,1004.68
2022-11-06T13:58:51.015Z,1004.54
2022-11-06T14:05:14.106Z,1004.48
2022-11-06T14:11:33.983Z,1004.37
2022-11-06T14:17:57.018Z,1004.37
2022-11-06T14:24:17.021Z,1004.43
2022-11-06T14:31:10.224Z,1004.48
2022-11-06T14:36:59.995Z,1004.39
2022-11-06T14:43:23.001Z,1004.35
2022-11-06T14:49:43.023Z,1004.23
2022-11-06T14:56:05.982Z,1004.27
2022-11-06T15:02:26.172Z,1004.45
2022-11-06T15:25:58.993Z,1004.6
2022-11-06T15:32:22.014Z,1004.54
2022-11-06T15:38:41.983Z,1004.52
2022-11-06T15:45:04.989Z,1004.52
2022-11-06T15:51:24.980Z,1004.54
2022-11-06T15:57:47.982Z,1004.54
2022-11-06T16:04:11.742Z,1004.5
2022-11-06T16:10:31.040Z,1004.47
2022-11-06T16:16:50.997Z,1004.48
2022-11-06T16:23:14.259Z,1004.45
2022-11-06T16:29:34.013Z,1004.35
2022-11-06T16:35:56.976Z,1004.17
2022-11-06T16:42:17.064Z,1003.94
2022-11-06T16:48:40.003Z,1003.74
2022-11-06T16:55:00.036Z,1003.56
2022-11-06T17:01:23.116Z,1003.45
2022-11-06T17:07:42.968Z,1003.31
2022-11-06T17:14:06.175Z,1003.66
2022-11-06T17:20:26.041Z,1003.72
2022-11-06T17:26:49.046Z,1003.76
2022-11-06T17:33:09.218Z,1003.82
2022-11-06T17:39:32.058Z,1003.76
2022-11-06T17:45:51.984Z,1003.78
2022-11-06T17:52:14.995Z,1003.76
2022-11-06T17:58:35.017Z,1003.7
2022-11-06T18:04:57.989Z,1003.56
2022-11-06T18:11:18.010Z,1003.53
2022-11-06T18:17:41.130Z,1003.43
2022-11-06T18:24:01.017Z,1003.33
2022-11-06T18:30:23.998Z,1003.19
2022-11-06T18:36:44.005Z,1003.11
2022-11-06T18:43:06.974Z,1003.15
2022-11-06T18:49:26.994Z,1003.27
2022-11-06T18:55:50.028Z,1003.29
2022-11-06T19:02:10.046Z,1003.33
2022-11-06T19:08:32.998Z,1003.29
2022-11-06T19:14:53.037Z,1003.33
2022-11-06T19:21:15.992Z,1003.39
2022-11-06T19:27:35.974Z,1003.41
2022-11-06T19:33:59.114Z,1003.51
2022-11-06T19:40:19.002Z,1003.56
2022-11-06T19:46:42.255Z,1003.64
2022-11-06T19:53:01.986Z,1003.66
2022-11-06T19:59:24.990Z,1003.64
2022-11-06T20:05:45.017Z,1003.7
2022-11-06T20:12:08.021Z,1003.66
2022-11-06T20:28:33.002Z,1003.8
2022-11-06T20:34:55.970Z,1003.88
2022-11-06T20:41:15.980Z,1003.92
2022-11-06T20:47:38.997Z,1003.94
2022-11-06T20:53:58.979Z,1004
2022-11-06T21:00:21.996Z,1004.09
2022-11-06T21:06:42.010Z,1004.17
2022-11-06T21:13:04.979Z,1004.29
2022-11-06T21:19:24.975Z,1004.39
2022-11-06T21:25:48.100Z,1004.45
2022-11-06T21:32:07.992Z,1004.52
2022-11-06T21:38:30.979Z,1004.6
2022-11-06T21:44:51.009Z,1004.68
2022-11-06T21:51:13.986Z,1004.78
2022-11-06T21:57:33.966Z,1004.9
2022-11-06T22:03:57.049Z,1004.99
2022-11-06T22:10:16.977Z,1005.05
2022-11-06T22:16:39.975Z,1005.07
2022-11-06T22:23:00.006Z,1005.11
2022-11-06T22:29:23.002Z,1005.15
2022-11-06T22:35:43.047Z,1005.19
2022-11-06T22:42:05.996Z,1005.17
2022-11-06T22:48:25.970Z,1005.15
2022-11-06T22:54:48.999Z,1005.15
2022-11-06T23:20:20.103Z,1005.13
2022-11-06T23:26:39.980Z,1005.15
2022-11-06T23:33:03.020Z,1005.19
2022-11-06T23:39:22.995Z,1005.25
2022-11-06T23:45:45.990Z,1005.36
2022-11-06T23:52:05.988Z,1005.34
2022-11-06T23:58:29.024Z,1005.34
